Time;durP1;ratioP1;P1;durP2;ratioP2;P2;SDS_P1;SDS_P2;PMS_P1;PMS_P2;Temp;Humidity;BMP_temperature;BMP_pressure;BME280_temperature;BME280_humidity;BME280_pressure;Samples;Min_cycle;Max_cycle;Signal;HPM_P1;HPM_P2
2023/10/01 00:00:46;;;;;;;1.55;0.77;;;;;;;;;;6176715;28;20316;-75
2023/10/01 00:03:47;;;;;;;2.28;0.80;;;;;;;;;;6183301;28;20030;-75
2023/10/01 00:06:47;;;;;;;1.00;0.63;;;;;;;;;;6193361;28;20054;-75
2023/10/01 00:09:47;;;;;;;1.30;0.80;;;;;;;;;;6180433;28;20015;-75
2023/10/01 00:12:48;;;;;;;1.67;0.80;;;;;;;;;;6178223;28;20031;-75
2023/10/01 00:15:49;;;;;;;2.35;0.80;;;;;;;;;;6184464;28;20285;-75
2023/10/01 00:18:49;;;;;;;1.60;0.90;;;;;;;;;;6193698;28;20564;-75
2023/10/01 00:21:49;;;;;;;1.40;1.00;;;;;;;;;;6183966;28;20131;-75
2023/10/01 00:24:50;;;;;;;2.40;1.13;;;;;;;;;;6175578;28;20034;-75
2023/10/01 00:27:51;;;;;;;1.73;0.83;;;;;;;;;;6184663;28;20472;-75
2023/10/01 00:30:51;;;;;;;1.60;0.95;;;;;;;;;;6173693;28;20039;-75
2023/10/01 00:33:52;;;;;;;2.10;1.10;;;;;;;;;;6186238;28;20485;-75
2023/10/01 00:36:52;;;;;;;1.55;0.90;;;;;;;;;;6185697;28;20033;-75
2023/10/01 00:39:54;;;;;;;1.73;0.93;;;;;;;;;;6175922;28;20035;-75
2023/10/01 00:42:55;;;;;;;1.80;1.17;;;;;;;;;;6181333;28;20391;-75
2023/10/01 00:45:56;;;;;;;2.00;1.00;;;;;;;;;;6172886;28;20026;-75
2023/10/01 00:48:56;;;;;;;1.30;0.98;;;;;;;;;;6184374;28;20030;-75
2023/10/01 00:51:57;;;;;;;1.27;0.80;;;;;;;;;;6185848;28;20026;-75
2023/10/01 00:54:57;;;;;;;0.88;0.70;;;;;;;;;;6178156;28;20026;-75
2023/10/01 00:57:58;;;;;;;2.08;1.00;;;;;;;;;;6178848;28;20038;-75
2023/10/01 01:00:59;;;;;;;2.03;0.80;;;;;;;;;;6171393;28;20513;-75
2023/10/01 01:03:59;;;;;;;1.98;1.00;;;;;;;;;;6189484;28;20038;-75
2023/10/01 01:07:03;;;;;;;1.43;0.80;;;;;;;;;;6179142;28;20026;-75
2023/10/01 01:10:04;;;;;;;1.15;0.70;;;;;;;;;;6178045;28;20046;-75
2023/10/01 01:13:06;;;;;;;0.85;0.65;;;;;;;;;;6184823;28;20204;-75
2023/10/01 01:16:07;;;;;;;1.80;1.00;;;;;;;;;;6184499;28;20030;-75
2023/10/01 01:19:09;;;;;;;1.25;0.98;;;;;;;;;;6183087;28;20027;-75
2023/10/01 01:22:23;;;;;;;1.08;0.85;;;;;;;;;;6175453;28;20391;-75
2023/10/01 01:25:26;;;;;;;1.27;0.90;;;;;;;;;;6186743;28;20117;-75
2023/10/01 01:28:32;;;;;;;1.50;0.77;;;;;;;;;;6179453;28;20044;-76
2023/10/01 01:31:45;;;;;;;1.23;0.98;;;;;;;;;;6178766;28;20053;-75
2023/10/01 01:34:45;;;;;;;2.45;0.80;;;;;;;;;;6178139;28;20025;-75
2023/10/01 01:37:51;;;;;;;0.90;0.70;;;;;;;;;;6174646;28;20459;-75
2023/10/01 01:40:52;;;;;;;1.00;0.63;;;;;;;;;;6172874;28;20026;-75
2023/10/01 01:43:53;;;;;;;1.27;0.82;;;;;;;;;;6189529;28;20031;-75
2023/10/01 01:47:00;;;;;;;0.65;0.60;;;;;;;;;;6174452;28;20044;-75
2023/10/01 01:50:10;;;;;;;1.83;0.88;;;;;;;;;;6176370;28;20035;-75
2023/10/01 01:53:12;;;;;;;1.23;0.70;;;;;;;;;;6179416;28;20030;-75
2023/10/01 01:56:12;;;;;;;1.30;0.60;;;;;;;;;;6182834;28;20050;-75
2023/10/01 01:59:15;;;;;;;1.98;0.82;;;;;;;;;;6175513;28;20394;-75
2023/10/01 02:02:16;;;;;;;2.20;0.80;;;;;;;;;;6181299;28;20046;-74
2023/10/01 02:05:17;;;;;;;1.67;0.88;;;;;;;;;;6179477;28;20526;-75
2023/10/01 02:08:44;;;;;;;;;;;;;;;;;;6186952;28;20034;-75
2023/10/01 02:11:45;;;;;;;1.40;0.63;;;;;;;;;;6214735;28;19910;-75
2023/10/01 02:14:47;;;;;;;;;;;;;;;;;;6173060;28;20109;-75
2023/10/01 02:17:48;;;;;;;1.10;0.63;;;;;;;;;;6168269;28;19910;-75
2023/10/01 02:20:51;;;;;;;0.98;0.82;;;;;;;;;;6159092;28;20129;-75
2023/10/01 02:23:54;;;;;;;1.65;0.60;;;;;;;;;;6176191;28;20490;-74
2023/10/01 02:26:58;;;;;;;1.10;0.70;;;;;;;;;;6177410;28;20630;-75
2023/10/01 02:30:16;;;;;;;1.67;0.98;;;;;;;;;;6171957;28;20507;-75
2023/10/01 02:33:19;;;;;;;1.27;0.70;;;;;;;;;;6194062;28;20038;-75
2023/10/01 02:36:22;;;;;;;1.55;0.77;;;;;;;;;;6172155;28;20070;-75
2023/10/01 02:39:28;;;;;;;1.30;0.70;;;;;;;;;;6181767;28;20044;-75
2023/10/01 02:42:31;;;;;;;0.90;0.70;;;;;;;;;;6186228;28;20040;-75
2023/10/01 02:45:32;;;;;;;2.22;0.98;;;;;;;;;;6179794;28;20038;-75
2023/10/01 02:48:32;;;;;;;1.10;0.68;;;;;;;;;;6182639;28;20489;-75
2023/10/01 02:51:37;;;;;;;0.93;0.70;;;;;;;;;;6182232;28;20088;-75
2023/10/01 02:54:37;;;;;;;2.33;0.88;;;;;;;;;;6199533;28;20030;-75
2023/10/01 02:57:40;;;;;;;1.47;0.97;;;;;;;;;;6236737;28;20398;-75
2023/10/01 03:00:40;;;;;;;3.25;1.10;;;;;;;;;;6211827;28;20029;-75
2023/10/01 03:03:41;;;;;;;1.43;0.90;;;;;;;;;;6189790;28;20027;-75
2023/10/01 03:06:52;;;;;;;1.10;0.68;;;;;;;;;;6187377;28;20022;-75
2023/10/01 03:10:00;;;;;;;1.67;0.82;;;;;;;;;;6187153;28;20063;-75
2023/10/01 03:13:01;;;;;;;3.22;0.95;;;;;;;;;;6188177;28;20022;-75
2023/10/01 03:19:25;;;;;;;1.63;0.80;;;;;;;;;;6186326;28;20030;-75
2023/10/01 03:22:31;;;;;;;2.42;0.90;;;;;;;;;;6192037;28;20038;-75
2023/10/01 03:25:40;;;;;;;1.60;0.80;;;;;;;;;;6191826;28;20042;-75
2023/10/01 03:35:21;;;;;;;1.08;0.88;;;;;;;;;;6180401;28;20387;-74
2023/10/01 03:38:22;;;;;;;1.07;0.70;;;;;;;;;;6184697;28;20065;-74
2023/10/01 03:41:23;;;;;;;;;;;;;;;;;;6179468;28;20293;-75
2023/10/01 03:47:42;;;;;;;1.38;0.73;;;;;;;;;;6182133;28;20015;-75
2023/10/01 03:50:47;;;;;;;1.20;0.80;;;;;;;;;;6188329;28;20487;-74
2023/10/01 03:53:48;;;;;;;1.40;0.90;;;;;;;;;;6189101;28;20387;-74
2023/10/01 03:57:00;;;;;;;1.48;1.00;;;;;;;;;;6199400;28;20054;-75
2023/10/01 04:00:28;;;;;;;3.13;1.10;;;;;;;;;;6194810;28;20561;-74
2023/10/01 04:03:21;;;;;;;0.82;0.73;;;;;;;;;;6198876;28;20038;-75
2023/10/01 04:06:21;;;;;;;1.13;0.75;;;;;;;;;;6199271;28;20147;-75
2023/10/01 04:09:26;;;;;;;1.10;0.80;;;;;;;;;;6158658;28;20045;-75
2023/10/01 04:12:32;;;;;;;2.13;1.10;;;;;;;;;;6204280;28;20029;-75
2023/10/01 04:15:40;;;;;;;1.73;0.80;;;;;;;;;;6205287;28;20509;-75
2023/10/01 04:18:43;;;;;;;1.67;0.95;;;;;;;;;;6198628;28;20030;-75
2023/10/01 04:21:50;;;;;;;2.20;0.82;;;;;;;;;;6188940;28;20050;-74
2023/10/01 04:25:00;;;;;;;1.15;0.80;;;;;;;;;;6185477;28;20033;-74
2023/10/01 04:28:01;;;;;;;1.40;0.90;;;;;;;;;;6186780;28;20045;-75
2023/10/01 04:31:09;;;;;;;0.90;0.80;;;;;;;;;;6197619;28;20024;-75
2023/10/01 04:34:11;;;;;;;1.83;0.85;;;;;;;;;;6180334;28;20022;-75
2023/10/01 04:37:11;;;;;;;1.27;0.70;;;;;;;;;;6173917;28;20041;-75
2023/10/01 04:43:41;;;;;;;0.90;0.80;;;;;;;;;;6172594;28;20109;-75
2023/10/01 04:46:45;;;;;;;2.05;0.82;;;;;;;;;;6178921;28;20039;-76
2023/10/01 04:49:46;;;;;;;1.17;0.85;;;;;;;;;;6177080;28;20062;-76
2023/10/01 04:52:47;;;;;;;0.93;0.73;;;;;;;;;;6176475;28;20035;-76
2023/10/01 04:56:06;;;;;;;;;;;;;;;;;;6173472;28;20031;-76
2023/10/01 04:59:07;;;;;;;1.30;0.80;;;;;;;;;;6173953;28;20024;-76
2023/10/01 05:02:21;;;;;;;2.20;0.90;;;;;;;;;;6174547;28;20039;-76
2023/10/01 05:05:27;;;;;;;1.48;0.80;;;;;;;;;;6174555;28;20045;-76
2023/10/01 05:08:38;;;;;;;1.30;0.77;;;;;;;;;;6177781;28;20099;-76
2023/10/01 05:11:39;;;;;;;1.80;0.88;;;;;;;;;;6175132;28;20030;-76
2023/10/01 05:14:59;;;;;;;2.08;0.85;;;;;;;;;;6173500;28;20031;-76
2023/10/01 05:18:01;;;;;;;1.00;0.80;;;;;;;;;;6180194;28;20029;-76
2023/10/01 05:21:04;;;;;;;1.65;0.60;;;;;;;;;;6184275;28;20134;-76
2023/10/01 05:24:05;;;;;;;2.05;0.90;;;;;;;;;;6178990;28;20051;-76
2023/10/01 05:27:18;;;;;;;1.48;0.90;;;;;;;;;;6189027;28;20096;-76
2023/10/01 05:30:38;;;;;;;1.55;1.00;;;;;;;;;;6171164;28;20042;-76
2023/10/01 05:33:39;;;;;;;2.08;0.95;;;;;;;;;;6175351;28;20049;-76
2023/10/01 05:36:39;;;;;;;1.23;0.80;;;;;;;;;;6171893;28;20399;-76
2023/10/01 05:39:58;;;;;;;1.00;0.83;;;;;;;;;;6174968;28;20037;-76
2023/10/01 05:43:12;;;;;;;1.73;0.90;;;;;;;;;;6177881;28;20030;-75
2023/10/01 05:46:12;;;;;;;2.15;0.93;;;;;;;;;;6174164;28;20030;-75
2023/10/01 05:49:12;;;;;;;1.17;0.90;;;;;;;;;;6174221;28;20027;-76
2023/10/01 05:52:13;;;;;;;3.03;1.20;;;;;;;;;;6172875;28;20282;-75
2023/10/01 05:55:15;;;;;;;;;;;;;;;;;;6175333;28;20083;-71
2023/10/01 05:58:16;;;;;;;2.20;0.70;;;;;;;;;;6173476;28;19910;-70
2023/10/01 06:01:17;;;;;;;1.20;0.90;;;;;;;;;;6175172;28;20034;-70
2023/10/01 06:04:18;;;;;;;2.25;1.25;;;;;;;;;;6175313;28;20042;-70
2023/10/01 06:07:19;;;;;;;2.53;1.20;;;;;;;;;;6171407;28;20029;-70
2023/10/01 06:10:19;;;;;;;0.93;0.80;;;;;;;;;;6170483;28;20444;-69
2023/10/01 06:13:19;;;;;;;2.00;0.93;;;;;;;;;;6173379;28;20033;-70
2023/10/01 06:16:23;;;;;;;2.63;0.83;;;;;;;;;;6156099;28;20042;-70
2023/10/01 06:19:23;;;;;;;1.67;0.80;;;;;;;;;;6174435;28;20155;-70
2023/10/01 06:22:25;;;;;;;2.03;0.98;;;;;;;;;;6171996;28;20034;-70
2023/10/01 06:25:40;;;;;;;1.98;1.13;;;;;;;;;;6171876;28;20047;-69
2023/10/01 06:28:41;;;;;;;1.98;0.80;;;;;;;;;;6169560;28;20113;-69
2023/10/01 06:31:48;;;;;;;1.38;0.90;;;;;;;;;;6181552;28;20034;-70
2023/10/01 06:34:49;;;;;;;2.63;1.55;;;;;;;;;;6180686;28;20030;-71
2023/10/01 06:37:50;;;;;;;2.08;1.52;;;;;;;;;;6206905;28;20028;-71
2023/10/01 06:40:51;;;;;;;2.33;1.20;;;;;;;;;;6178551;28;20063;-70
2023/10/01 06:43:55;;;;;;;1.95;1.27;;;;;;;;;;6156374;28;20039;-69
2023/10/01 06:46:56;;;;;;;2.58;1.73;;;;;;;;;;6181747;28;20385;-70
2023/10/01 06:53:07;;;;;;;2.17;1.10;;;;;;;;;;6167913;28;20766;-72
2023/10/01 06:56:09;;;;;;;1.77;1.00;;;;;;;;;;6156416;28;20042;-74
2023/10/01 07:02:12;;;;;;;4.45;2.78;;;;;;;;;;6171021;28;20083;-74
2023/10/01 07:05:16;;;;;;;3.38;1.92;;;;;;;;;;6173433;28;20038;-76
2023/10/01 07:08:19;;;;;;;2.28;1.70;;;;;;;;;;6177770;28;20483;-74
2023/10/01 07:11:19;;;;;;;3.45;1.70;;;;;;;;;;6178503;28;20111;-72
2023/10/01 07:14:30;;;;;;;;;;;;;;;;;;5491183;28;10000711;-73
2023/10/01 07:17:31;;;;;;;2.33;1.15;;;;;;;;;;6192819;28;19917;-76
2023/10/01 07:20:31;;;;;;;3.65;2.03;;;;;;;;;;6176972;28;20496;-76
2023/10/01 07:23:35;;;;;;;3.40;1.80;;;;;;;;;;6184125;28;20061;-74
2023/10/01 07:26:35;;;;;;;2.47;1.65;;;;;;;;;;6179576;28;20029;-74
2023/10/01 07:29:35;;;;;;;;;;;;;;;;;;6178117;28;20021;-74
2023/10/01 07:32:41;;;;;;;2.20;1.27;;;;;;;;;;6180039;28;20347;-75
2023/10/01 07:35:44;;;;;;;2.63;1.58;;;;;;;;;;6183471;28;20437;-72
2023/10/01 07:38:48;;;;;;;3.45;1.70;;;;;;;;;;6178558;28;20041;-75
2023/10/01 07:41:49;;;;;;;1.98;1.52;;;;;;;;;;6175886;28;20050;-82
2023/10/01 07:44:49;;;;;;;;;;;;;;;;;;6181000;28;20030;-78
2023/10/01 07:47:49;;;;;;;2.17;1.30;;;;;;;;;;6176764;28;19956;-80
2023/10/01 07:50:51;;;;;;;;;;;;;;;;;;6164168;28;20026;-79
2023/10/01 07:53:57;;;;;;;;;;;;;;;;;;6175607;28;19921;-78
2023/10/01 07:56:57;;;;;;;1.88;1.35;;;;;;;;;;6177556;28;19918;-76
2023/10/01 08:00:00;;;;;;;;;;;;;;;;;;6173890;28;20061;-76
2023/10/01 08:06:25;;;;;;;1.70;1.38;;;;;;;;;;6173103;28;20084;-76
2023/10/01 08:09:26;;;;;;;4.95;2.50;;;;;;;;;;6177214;28;20023;-75
2023/10/01 08:12:56;;;;;;;5.38;2.30;;;;;;;;;;6176759;28;20390;-77
2023/10/01 08:16:01;;;;;;;3.67;2.03;;;;;;;;;;6174944;28;20025;-79
2023/10/01 08:19:05;;;;;;;9.15;2.20;;;;;;;;;;6174878;28;20109;-84
2023/10/01 08:22:13;;;;;;;1.45;1.10;;;;;;;;;;6175623;28;20050;-80
2023/10/01 08:25:13;;;;;;;2.22;1.38;;;;;;;;;;6179789;28;20045;-81
2023/10/01 08:35:01;;;;;;;1.55;1.13;;;;;;;;;;6177648;28;19921;-65
2023/10/01 08:37:59;;;;;;;1.93;1.40;;;;;;;;;;6173460;28;20042;-65
2023/10/01 08:41:03;;;;;;;2.35;1.35;;;;;;;;;;6182232;28;20160;-69
2023/10/01 08:44:10;;;;;;;2.08;1.42;;;;;;;;;;6174579;28;20360;-67
2023/10/01 08:47:21;;;;;;;2.58;1.50;;;;;;;;;;6177380;28;21296;-66
2023/10/01 08:50:29;;;;;;;2.58;1.58;;;;;;;;;;6170562;28;20034;-67
2023/10/01 08:53:36;;;;;;;3.33;1.35;;;;;;;;;;6181220;28;20103;-67
2023/10/01 08:56:38;;;;;;;2.90;1.45;;;;;;;;;;6186166;28;20042;-67
2023/10/01 08:59:39;;;;;;;3.00;1.42;;;;;;;;;;6180128;28;20541;-68
2023/10/01 09:02:39;;;;;;;2.03;1.48;;;;;;;;;;6176080;28;20121;-67
2023/10/01 09:05:46;;;;;;;3.28;1.48;;;;;;;;;;6174860;28;20116;-68
2023/10/01 09:08:46;;;;;;;2.97;1.50;;;;;;;;;;6177164;28;20390;-68
2023/10/01 09:11:53;;;;;;;1.93;1.30;;;;;;;;;;6241557;28;20023;-67
2023/10/01 09:14:53;;;;;;;3.97;1.65;;;;;;;;;;5904463;28;10000576;-68
2023/10/01 09:17:56;;;;;;;4.07;1.58;;;;;;;;;;6208817;28;20058;-68
2023/10/01 09:21:09;;;;;;;2.38;1.58;;;;;;;;;;6215015;28;20053;-68
2023/10/01 09:24:42;;;;;;;1.42;1.23;;;;;;;;;;6175532;28;20031;-68
2023/10/01 09:28:03;;;;;;;3.47;1.60;;;;;;;;;;6185065;28;20168;-68
2023/10/01 09:31:37;;;;;;;3.10;1.63;;;;;;;;;;6176821;28;20050;-68
2023/10/01 09:34:36;;;;;;;2.35;1.30;;;;;;;;;;6201692;28;20041;-70
2023/10/01 09:37:52;;;;;;;1.38;1.15;;;;;;;;;;6196256;28;20022;-70
2023/10/01 09:40:54;;;;;;;1.95;1.27;;;;;;;;;;6188587;28;20026;-70
2023/10/01 09:43:58;;;;;;;2.80;1.58;;;;;;;;;;6217976;28;20084;-70
2023/10/01 09:47:07;;;;;;;2.63;1.40;;;;;;;;;;6190609;28;20037;-70
2023/10/01 09:50:15;;;;;;;1.70;1.23;;;;;;;;;;6210545;28;20060;-85
2023/10/01 09:53:24;;;;;;;2.13;1.35;;;;;;;;;;6182310;28;20026;-86
2023/10/01 09:56:29;;;;;;;2.90;1.40;;;;;;;;;;6203330;28;20038;-85
2023/10/01 09:59:29;;;;;;;1.85;1.33;;;;;;;;;;6190398;28;20368;-85
2023/10/01 10:02:31;;;;;;;2.37;1.20;;;;;;;;;;6210714;28;20074;-86
2023/10/01 10:05:32;;;;;;;2.25;1.45;;;;;;;;;;6199079;28;20292;-85
2023/10/01 10:08:36;;;;;;;2.42;1.45;;;;;;;;;;6197980;28;20100;-85
2023/10/01 10:11:37;;;;;;;2.08;1.40;;;;;;;;;;6183397;28;20041;-84
2023/10/01 10:14:39;;;;;;;3.45;1.52;;;;;;;;;;6187437;28;20077;-84
2023/10/01 10:17:59;;;;;;;3.05;1.63;;;;;;;;;;6189922;28;20037;-85
2023/10/01 10:21:05;;;;;;;2.75;1.75;;;;;;;;;;6184277;28;20096;-84
2023/10/01 10:24:17;;;;;;;2.78;1.70;;;;;;;;;;6190630;28;20042;-85
2023/10/01 10:27:24;;;;;;;2.75;1.45;;;;;;;;;;6176100;28;20027;-85
2023/10/01 10:30:27;;;;;;;3.20;1.55;;;;;;;;;;6208061;28;20030;-84
2023/10/01 10:33:39;;;;;;;3.25;1.42;;;;;;;;;;6190265;28;20079;-84
2023/10/01 10:36:50;;;;;;;2.17;1.50;;;;;;;;;;6215777;28;20018;-84
2023/10/01 10:40:02;;;;;;;1.92;1.35;;;;;;;;;;6219699;28;20033;-84
2023/10/01 10:43:08;;;;;;;2.25;1.52;;;;;;;;;;6186194;28;20073;-85
2023/10/01 10:46:09;;;;;;;2.40;1.58;;;;;;;;;;6219309;28;20120;-84
2023/10/01 10:49:09;;;;;;;3.00;1.55;;;;;;;;;;6207097;28;20023;-84
2023/10/01 10:52:30;;;;;;;3.10;1.77;;;;;;;;;;6195733;28;20023;-84
2023/10/01 10:55:36;;;;;;;3.28;1.80;;;;;;;;;;6222404;28;20026;-84
2023/10/01 10:58:39;;;;;;;3.20;2.00;;;;;;;;;;6189819;28;20150;-84
2023/10/01 11:01:51;;;;;;;4.90;2.33;;;;;;;;;;6216234;28;20069;-84
2023/10/01 11:04:51;;;;;;;2.75;1.83;;;;;;;;;;6220689;28;20083;-84
2023/10/01 11:07:58;;;;;;;4.07;2.10;;;;;;;;;;6201115;28;20475;-85
2023/10/01 11:11:10;;;;;;;2.70;1.83;;;;;;;;;;6199592;28;20334;-85
2023/10/01 11:14:16;;;;;;;4.30;2.00;;;;;;;;;;6193560;28;20076;-85
2023/10/01 11:17:16;;;;;;;2.75;1.63;;;;;;;;;;6158702;28;20026;-86
2023/10/01 11:20:25;;;;;;;1.93;1.60;;;;;;;;;;6204439;28;20053;-85
2023/10/01 11:23:26;;;;;;;3.15;1.90;;;;;;;;;;6180836;28;20305;-85
2023/10/01 11:26:27;;;;;;;2.70;1.80;;;;;;;;;;6190253;28;20111;-85
2023/10/01 11:29:30;;;;;;;4.03;2.15;;;;;;;;;;6208827;28;20026;-85
2023/10/01 11:32:58;;;;;;;2.70;1.92;;;;;;;;;;6197194;28;20027;-84
2023/10/01 11:36:07;;;;;;;4.03;1.95;;;;;;;;;;6205700;28;20030;-84
2023/10/01 11:39:16;;;;;;;2.75;1.60;;;;;;;;;;6197099;28;20479;-85
2023/10/01 11:42:26;;;;;;;2.38;1.45;;;;;;;;;;6194419;28;20033;-84
2023/10/01 11:45:29;;;;;;;3.63;1.88;;;;;;;;;;6222702;28;20383;-83
2023/10/01 11:48:34;;;;;;;2.88;1.75;;;;;;;;;;6212456;28;20034;-84
2023/10/01 11:52:02;;;;;;;3.42;1.75;;;;;;;;;;6193254;28;20083;-84
2023/10/01 11:55:18;;;;;;;3.08;1.67;;;;;;;;;;6222348;28;20540;-85
2023/10/01 11:58:25;;;;;;;2.28;1.45;;;;;;;;;;6190373;28;20098;-84
2023/10/01 12:01:38;;;;;;;3.38;1.70;;;;;;;;;;6173332;28;20015;-84
2023/10/01 12:04:48;;;;;;;2.78;1.60;;;;;;;;;;6187743;28;20030;-84
2023/10/01 12:07:49;;;;;;;2.65;1.60;;;;;;;;;;6212758;28;20025;-84
2023/10/01 12:10:51;;;;;;;2.75;1.70;;;;;;;;;;6211343;28;20033;-83
2023/10/01 12:14:05;;;;;;;2.60;1.50;;;;;;;;;;6209327;28;20067;-84
2023/10/01 12:17:06;;;;;;;1.95;1.20;;;;;;;;;;6217231;28;20037;-84
2023/10/01 12:20:21;;;;;;;2.60;1.63;;;;;;;;;;6194517;28;20514;-84
2023/10/01 12:23:26;;;;;;;3.47;1.77;;;;;;;;;;6195993;28;20483;-84
2023/10/01 12:29:42;;;;;;;2.90;1.90;;;;;;;;;;6222021;28;20029;-83
2023/10/01 12:32:47;;;;;;;3.47;1.70;;;;;;;;;;6187754;28;20775;-83
2023/10/01 12:35:48;;;;;;;2.45;1.55;;;;;;;;;;6182926;28;20026;-83
2023/10/01 12:38:48;;;;;;;3.57;1.40;;;;;;;;;;6206897;28;20030;-84
2023/10/01 12:41:57;;;;;;;4.60;2.60;;;;;;;;;;6216474;28;20293;-83
2023/10/01 12:45:13;;;;;;;4.43;2.45;;;;;;;;;;6219654;28;20038;-83
2023/10/01 12:48:13;;;;;;;3.22;2.00;;;;;;;;;;6221815;28;20029;-83
2023/10/01 12:51:13;;;;;;;3.40;1.80;;;;;;;;;;6205300;28;20541;-83
2023/10/01 12:54:22;;;;;;;2.47;1.70;;;;;;;;;;6204325;28;20152;-83
2023/10/01 12:57:23;;;;;;;2.40;1.67;;;;;;;;;;6244771;28;20034;-84
2023/10/01 13:00:43;;;;;;;3.13;2.38;;;;;;;;;;6266739;28;20382;-83
2023/10/01 13:03:44;;;;;;;3.05;1.88;;;;;;;;;;6184771;28;20045;-79
2023/10/01 13:06:46;;;;;;;2.65;2.10;;;;;;;;;;6174967;28;20034;-81
2023/10/01 13:12:56;;;;;;;3.07;1.70;;;;;;;;;;6174260;28;20033;-80
2023/10/01 13:15:57;;;;;;;3.28;1.77;;;;;;;;;;6180979;28;20022;-79
2023/10/01 13:18:57;;;;;;;2.97;1.77;;;;;;;;;;6174608;28;20034;-78
2023/10/01 13:21:58;;;;;;;3.10;1.93;;;;;;;;;;6173278;28;20055;-80
2023/10/01 13:24:58;;;;;;;3.05;1.88;;;;;;;;;;6199770;28;20040;-80
2023/10/01 13:28:04;;;;;;;3.97;1.75;;;;;;;;;;6192118;28;20030;-84
2023/10/01 13:31:04;;;;;;;2.78;1.98;;;;;;;;;;6166259;28;20031;-80
2023/10/01 13:40:42;;;;;;;2.60;1.80;;;;;;;;;;6177784;28;20365;-81
2023/10/01 14:10:16;;;;;;;3.10;1.92;;;;;;;;;;6183369;28;20038;-73
2023/10/01 14:13:29;;;;;;;3.53;2.13;;;;;;;;;;6184337;28;20037;-73
2023/10/01 14:16:29;;;;;;;2.65;1.90;;;;;;;;;;6168526;28;20027;-73
2023/10/01 14:19:30;;;;;;;2.47;1.88;;;;;;;;;;6184921;28;20101;-72
2023/10/01 14:22:30;;;;;;;4.22;2.13;;;;;;;;;;6194586;28;20066;-72
2023/10/01 14:25:30;;;;;;;3.08;1.95;;;;;;;;;;6177287;28;20026;-73
2023/10/01 14:28:31;;;;;;;3.53;2.07;;;;;;;;;;6175408;28;20034;-72
2023/10/01 14:31:41;;;;;;;3.63;2.10;;;;;;;;;;6172256;28;20270;-72
2023/10/01 14:34:41;;;;;;;3.45;2.03;;;;;;;;;;6173830;28;20459;-73
2023/10/01 14:37:53;;;;;;;2.75;1.92;;;;;;;;;;6174752;28;20120;-72
2023/10/01 14:40:56;;;;;;;3.50;2.08;;;;;;;;;;6181211;28;20026;-73
2023/10/01 14:43:57;;;;;;;3.33;2.00;;;;;;;;;;6190949;28;20034;-72
2023/10/01 14:46:57;;;;;;;3.30;1.85;;;;;;;;;;6181517;28;20038;-72
2023/10/01 14:49:58;;;;;;;3.45;2.05;;;;;;;;;;6162513;28;20034;-72
2023/10/01 14:53:01;;;;;;;3.03;1.87;;;;;;;;;;6187085;28;20040;-72
2023/10/01 14:56:04;;;;;;;3.00;2.05;;;;;;;;;;6192074;28;20054;-72
2023/10/01 14:59:05;;;;;;;3.15;1.98;;;;;;;;;;6189440;28;20030;-73
2023/10/01 15:02:15;;;;;;;3.90;1.80;;;;;;;;;;6190401;28;20030;-72
2023/10/01 15:05:17;;;;;;;4.00;2.07;;;;;;;;;;6173164;28;20061;-72
2023/10/01 15:08:20;;;;;;;2.38;1.70;;;;;;;;;;6177484;28;20034;-73
2023/10/01 15:11:20;;;;;;;3.33;2.05;;;;;;;;;;6180832;28;20052;-72
2023/10/01 15:14:26;;;;;;;4.00;2.07;;;;;;;;;;6171540;28;20031;-73
2023/10/01 15:17:32;;;;;;;4.35;2.28;;;;;;;;;;6178288;28;20043;-73
2023/10/01 15:20:47;;;;;;;3.53;2.17;;;;;;;;;;6170719;28;20139;-73
2023/10/01 15:23:47;;;;;;;2.95;2.00;;;;;;;;;;6181551;28;20547;-72
2023/10/01 15:26:48;;;;;;;2.85;1.83;;;;;;;;;;6165352;28;20083;-73
2023/10/01 15:29:52;;;;;;;3.75;2.20;;;;;;;;;;6177140;28;20062;-73
2023/10/01 15:33:00;;;;;;;2.70;2.03;;;;;;;;;;6180595;28;20097;-71
2023/10/01 15:36:05;;;;;;;4.07;2.30;;;;;;;;;;6176551;28;20055;-70
2023/10/01 15:39:14;;;;;;;2.63;1.88;;;;;;;;;;6173793;28;20062;-72
2023/10/01 15:42:19;;;;;;;2.88;2.00;;;;;;;;;;6175655;28;20062;-73
2023/10/01 15:45:19;;;;;;;4.90;1.92;;;;;;;;;;6181294;28;20034;-72
2023/10/01 15:48:19;;;;;;;3.65;1.95;;;;;;;;;;6185480;28;20113;-70
2023/10/01 15:51:25;;;;;;;3.87;1.93;;;;;;;;;;6176453;28;20491;-67
2023/10/01 15:54:25;;;;;;;4.78;1.95;;;;;;;;;;6179634;28;20128;-67
2023/10/01 15:57:26;;;;;;;8.47;2.37;;;;;;;;;;6176009;28;20030;-67
2023/10/01 16:00:26;;;;;;;7.87;4.33;;;;;;;;;;6187257;28;20030;-73
2023/10/01 16:03:30;;;;;;;4.20;2.75;;;;;;;;;;6181489;28;20034;-66
2023/10/01 16:06:30;;;;;;;5.30;2.65;;;;;;;;;;6180878;28;20047;-66
2023/10/01 16:09:38;;;;;;;3.38;2.10;;;;;;;;;;6184187;28;20046;-67
2023/10/01 16:12:39;;;;;;;4.00;2.20;;;;;;;;;;6183411;28;20084;-66
2023/10/01 16:15:41;;;;;;;4.95;2.28;;;;;;;;;;6176455;28;20460;-67
2023/10/01 16:18:42;;;;;;;3.33;2.08;;;;;;;;;;6176323;28;20059;-66
2023/10/01 16:21:44;;;;;;;4.18;2.08;;;;;;;;;;6177836;28;20051;-66
2023/10/01 16:24:44;;;;;;;2.85;1.73;;;;;;;;;;6179346;28;20042;-66
2023/10/01 16:27:44;;;;;;;3.00;2.10;;;;;;;;;;6170799;28;20092;-66
2023/10/01 16:30:52;;;;;;;2.67;1.70;;;;;;;;;;6166309;28;20421;-65
2023/10/01 16:33:59;;;;;;;2.70;1.75;;;;;;;;;;6173538;28;21752;-67
2023/10/01 16:37:00;;;;;;;4.15;2.45;;;;;;;;;;6175461;28;20133;-67
2023/10/01 16:40:18;;;;;;;3.40;2.00;;;;;;;;;;6177774;28;20403;-67
2023/10/01 16:43:19;;;;;;;3.13;2.20;;;;;;;;;;6181111;28;20050;-67
2023/10/01 16:46:20;;;;;;;3.08;1.83;;;;;;;;;;6174443;28;20105;-67
2023/10/01 16:49:21;;;;;;;3.60;2.38;;;;;;;;;;6180285;28;20034;-67
2023/10/01 16:52:23;;;;;;;4.83;2.30;;;;;;;;;;6174583;28;20041;-67
2023/10/01 16:55:28;;;;;;;3.28;2.13;;;;;;;;;;6179837;28;20030;-69
2023/10/01 16:58:36;;;;;;;2.67;1.80;;;;;;;;;;6175448;28;20087;-71
2023/10/01 17:01:38;;;;;;;3.53;1.90;;;;;;;;;;6175801;28;20037;-69
2023/10/01 17:04:40;;;;;;;4.22;2.05;;;;;;;;;;6183963;28;20083;-67
2023/10/01 17:07:41;;;;;;;3.20;1.88;;;;;;;;;;6178007;28;20033;-69
2023/10/01 17:10:44;;;;;;;3.47;2.17;;;;;;;;;;6176733;28;20034;-77
2023/10/01 17:13:45;;;;;;;2.58;1.77;;;;;;;;;;6178235;28;20038;-81
2023/10/01 17:16:46;;;;;;;4.15;2.40;;;;;;;;;;6176054;28;20042;-79
2023/10/01 17:19:53;;;;;;;4.88;2.38;;;;;;;;;;6174152;28;20054;-80
2023/10/01 17:22:54;;;;;;;3.97;2.50;;;;;;;;;;6180655;28;20068;-74
2023/10/01 17:26:00;;;;;;;3.43;2.10;;;;;;;;;;6186253;28;20025;-74
2023/10/01 17:29:00;;;;;;;4.10;2.13;;;;;;;;;;6193135;28;20498;-74
2023/10/01 17:32:04;;;;;;;4.00;2.42;;;;;;;;;;6175099;28;20044;-73
2023/10/01 17:35:17;;;;;;;3.85;2.50;;;;;;;;;;6173478;28;20481;-74
2023/10/01 17:38:19;;;;;;;3.90;2.90;;;;;;;;;;6186786;28;20041;-74
2023/10/01 17:41:19;;;;;;;8.15;6.03;;;;;;;;;;6197350;28;20038;-74
2023/10/01 17:44:24;;;;;;;7.28;3.38;;;;;;;;;;6187267;28;20088;-71
2023/10/01 17:47:29;;;;;;;4.57;2.67;;;;;;;;;;6189721;28;20044;-72
2023/10/01 17:50:31;;;;;;;3.88;2.35;;;;;;;;;;6176844;28;20030;-70
2023/10/01 17:53:32;;;;;;;5.40;2.47;;;;;;;;;;6174858;28;20464;-70
2023/10/01 17:56:37;;;;;;;3.38;2.20;;;;;;;;;;6183083;28;20315;-70
2023/10/01 17:59:37;;;;;;;2.67;2.00;;;;;;;;;;6189994;28;20034;-70
2023/10/01 18:02:41;;;;;;;5.93;2.50;;;;;;;;;;6180660;28;20047;-70
2023/10/01 18:05:56;;;;;;;4.85;2.42;;;;;;;;;;6179517;28;20117;-71
2023/10/01 18:08:57;;;;;;;3.58;2.20;;;;;;;;;;5832033;28;10001308;-70
2023/10/01 18:12:13;;;;;;;4.30;2.22;;;;;;;;;;6174279;28;20092;-71
2023/10/01 18:15:19;;;;;;;3.00;2.40;;;;;;;;;;6177044;28;20023;-71
2023/10/01 18:18:23;;;;;;;3.38;2.13;;;;;;;;;;6176244;28;20022;-71
2023/10/01 18:21:24;;;;;;;2.92;2.08;;;;;;;;;;6173280;28;20061;-70
2023/10/01 18:24:24;;;;;;;4.38;2.53;;;;;;;;;;6172935;28;20099;-71
2023/10/01 18:27:25;;;;;;;4.23;2.33;;;;;;;;;;6172616;28;20038;-71
2023/10/01 18:30:25;;;;;;;4.97;2.65;;;;;;;;;;6177857;28;20825;-70
2023/10/01 18:33:28;;;;;;;4.97;2.60;;;;;;;;;;6174329;28;20030;-71
2023/10/01 18:36:31;;;;;;;4.57;2.60;;;;;;;;;;6170375;28;20671;-70
2023/10/01 18:39:34;;;;;;;4.15;2.33;;;;;;;;;;6173602;28;20099;-70
2023/10/01 18:42:35;;;;;;;5.25;2.65;;;;;;;;;;6172443;28;20545;-70
2023/10/01 18:45:35;;;;;;;2.90;1.85;;;;;;;;;;6173592;28;20061;-71
2023/10/01 18:48:39;;;;;;;5.30;2.30;;;;;;;;;;6174035;28;20022;-70
2023/10/01 18:51:39;;;;;;;3.50;2.45;;;;;;;;;;6171316;28;20117;-71
2023/10/01 18:54:41;;;;;;;;;;;;;;;;;;6183465;28;20623;-70
2023/10/01 18:57:41;;;;;;;3.65;2.00;;;;;;;;;;6176462;28;19914;-70
2023/10/01 19:00:42;;;;;;;;;;;;;;;;;;6174401;28;20046;-71
2023/10/01 19:03:46;;;;;;;5.10;2.03;;;;;;;;;;6182713;28;20746;-70
2023/10/01 19:06:47;;;;;;;3.28;2.05;;;;;;;;;;6181639;28;20031;-70
2023/10/01 19:09:47;;;;;;;;;;;;;;;;;;6175124;28;20076;-70
2023/10/01 19:12:47;;;;;;;3.92;2.30;;;;;;;;;;6181452;28;19949;-70
2023/10/01 19:15:47;;;;;;;4.70;1.97;;;;;;;;;;6192442;28;20036;-72
2023/10/01 19:18:52;;;;;;;4.47;2.67;;;;;;;;;;6175661;28;20069;-70
2023/10/01 19:21:52;;;;;;;4.32;2.72;;;;;;;;;;6191581;28;20301;-70
2023/10/01 19:24:52;;;;;;;;;;;;;;;;;;6191809;28;20042;-71
2023/10/01 19:27:56;;;;;;;6.90;2.45;;;;;;;;;;6181002;28;19909;-71
2023/10/01 19:30:56;;;;;;;4.60;2.63;;;;;;;;;;6182348;28;20492;-71
2023/10/01 19:33:58;;;;;;;;;;;;;;;;;;6173584;28;20113;-70
2023/10/01 19:36:58;;;;;;;;;;;;;;;;;;6175915;28;20778;-72
2023/10/01 19:39:58;;;;;;;2.72;1.98;;;;;;;;;;6173654;28;19922;-70
2023/10/01 19:42:59;;;;;;;;;;;;;;;;;;6181208;28;20035;-71